Henderson, New York
Current Conditions -  °F | °C
As of 8:56 AM on Tuesday 21 Oct 2014 (Local Time) from KART Reporting Station
Overcast Overcast  
Wind Chill: 11°   Ceiling: 3200
Heat Index: 11°   Visibility: 10mi
Dew Point:   Wind: 5mph
Humidity: 74%   Direction: 80°E
Pressure: 29.86"   Gusts: NA
Location:  43.85°N, 76.18°W
Report Text: KART 211256Z AUTO 08004KT 10SM BKN032 OVC055 11/06 A2986 RMK AO2 SLP113 T01060061
Loading
Personal Weather Stations






























Interactive Weather Map
Tropical Storm Tracking
New forecast layout! Learn more

10-Day Weather Forecast

Advertisements
Track Severe Weather on mobile